Aviation Digital Data Service (ADDS)

Output produced by METARs form (0521 UTC 26 September 2018)
found at http://www.aviationweather.gov/metar/data/
 
KGNV 260453Z AUTO 11003KT 10SM CLR 26/22 A3015 RMK AO2 SLP205 T02560222 403500228
KGNV 260520Z 2606/2706 00000KT P6SM FEW250 
     FM260900 00000KT 6SM BR SCT250 
     TEMPO 2609/2611 3SM BR SCT002 
     FM261500 15004KT P6SM FEW030 
     FM261900 13007KT P6SM VCTS SCT045CB